Terminal Aerodrome Forecast
Issued by NWS

Home | Current Version | Previous Version | Text Only | Print | Product List | Glossary On
Versions: 1 2 3 4 5 6 7 8 9 10 11 12 13
000
FTUS45 KSLC 251120
TAFOGD
TAF
KOGD 251120Z 2512/2612 17010KT P6SM SKC
     FM251800 19015G25KT P6SM FEW080
     FM260100 18012KT P6SM SCT080=

USA.gov is the U.S. government's official web portal to all federal, state and local government web resources and services.